sensor_id;sensor_type;location;lat;lon;timestamp;temperature;humidity
37158;DHT22;23050;51.776;22.638;2023-04-09T00:02:09;7.80;99.90
37158;DHT22;23050;51.776;22.638;2023-04-09T00:04:35;7.70;99.90
37158;DHT22;23050;51.776;22.638;2023-04-09T00:07:00;7.70;99.90
37158;DHT22;23050;51.776;22.638;2023-04-09T00:09:25;7.70;99.90
37158;DHT22;23050;51.776;22.638;2023-04-09T00:11:51;7.70;99.90
37158;DHT22;23050;51.776;22.638;2023-04-09T00:14:16;7.70;99.90
37158;DHT22;23050;51.776;22.638;2023-04-09T00:16:42;7.70;99.90
37158;DHT22;23050;51.776;22.638;2023-04-09T00:19:07;7.80;99.90
37158;DHT22;23050;51.776;22.638;2023-04-09T00:21:33;7.70;99.90
37158;DHT22;23050;51.776;22.638;2023-04-09T00:23:58;7.60;99.90
37158;DHT22;23050;51.776;22.638;2023-04-09T00:26:24;7.60;99.90
37158;DHT22;23050;51.776;22.638;2023-04-09T00:28:50;7.70;99.90
37158;DHT22;23050;51.776;22.638;2023-04-09T00:31:15;7.60;99.90
37158;DHT22;23050;51.776;22.638;2023-04-09T00:33:41;7.70;99.90
37158;DHT22;23050;51.776;22.638;2023-04-09T00:36:06;7.70;99.90
37158;DHT22;23050;51.776;22.638;2023-04-09T00:38:32;7.70;99.90
37158;DHT22;23050;51.776;22.638;2023-04-09T00:40:57;7.70;99.90
37158;DHT22;23050;51.776;22.638;2023-04-09T00:43:23;7.60;99.90
37158;DHT22;23050;51.776;22.638;2023-04-09T00:45:48;7.70;99.90
37158;DHT22;23050;51.776;22.638;2023-04-09T00:48:14;7.70;99.90
37158;DHT22;23050;51.776;22.638;2023-04-09T00:50:40;7.70;99.90
37158;DHT22;23050;51.776;22.638;2023-04-09T00:53:06;7.70;99.90
37158;DHT22;23050;51.776;22.638;2023-04-09T00:55:31;7.70;99.90
37158;DHT22;23050;51.776;22.638;2023-04-09T00:57:57;7.70;99.90
37158;DHT22;23050;51.776;22.638;2023-04-09T01:00:22;7.70;99.90
37158;DHT22;23050;51.776;22.638;2023-04-09T01:02:48;7.70;99.90
37158;DHT22;23050;51.776;22.638;2023-04-09T01:05:15;7.70;99.90
37158;DHT22;23050;51.776;22.638;2023-04-09T01:15:25;7.70;99.90
37158;DHT22;23050;51.776;22.638;2023-04-09T01:17:58;7.70;99.90
37158;DHT22;23050;51.776;22.638;2023-04-09T01:20:31;7.70;99.90
37158;DHT22;23050;51.776;22.638;2023-04-09T01:23:03;7.70;99.90
37158;DHT22;23050;51.776;22.638;2023-04-09T01:25:42;7.70;99.90
37158;DHT22;23050;51.776;22.638;2023-04-09T01:28:26;7.70;99.90
37158;DHT22;23050;51.776;22.638;2023-04-09T01:30:52;7.70;99.90
37158;DHT22;23050;51.776;22.638;2023-04-09T01:33:20;7.70;99.90
37158;DHT22;23050;51.776;22.638;2023-04-09T01:35:46;7.70;99.90
37158;DHT22;23050;51.776;22.638;2023-04-09T01:38:13;7.70;99.90
37158;DHT22;23050;51.776;22.638;2023-04-09T01:40:39;7.60;99.90
37158;DHT22;23050;51.776;22.638;2023-04-09T01:43:05;7.60;99.90
37158;DHT22;23050;51.776;22.638;2023-04-09T01:45:32;7.70;99.90
37158;DHT22;23050;51.776;22.638;2023-04-09T01:47:58;7.60;99.90
37158;DHT22;23050;51.776;22.638;2023-04-09T01:50:23;7.60;99.90
37158;DHT22;23050;51.776;22.638;2023-04-09T01:52:49;7.60;99.90
37158;DHT22;23050;51.776;22.638;2023-04-09T01:55:15;7.50;99.90
37158;DHT22;23050;51.776;22.638;2023-04-09T01:57:40;7.50;99.90
37158;DHT22;23050;51.776;22.638;2023-04-09T02:00:06;7.50;99.90
37158;DHT22;23050;51.776;22.638;2023-04-09T02:02:36;7.50;99.90
37158;DHT22;23050;51.776;22.638;2023-04-09T02:05:06;7.50;99.90
37158;DHT22;23050;51.776;22.638;2023-04-09T02:07:41;7.50;99.90
37158;DHT22;23050;51.776;22.638;2023-04-09T02:10:08;7.50;99.90
37158;DHT22;23050;51.776;22.638;2023-04-09T02:12:37;7.40;99.90
37158;DHT22;23050;51.776;22.638;2023-04-09T02:15:03;7.40;99.90
37158;DHT22;23050;51.776;22.638;2023-04-09T02:17:30;7.40;99.90
37158;DHT22;23050;51.776;22.638;2023-04-09T02:19:55;7.40;99.90
37158;DHT22;23050;51.776;22.638;2023-04-09T02:22:21;7.40;99.90
37158;DHT22;23050;51.776;22.638;2023-04-09T02:24:46;7.40;99.90
37158;DHT22;23050;51.776;22.638;2023-04-09T02:27:12;7.40;99.90
37158;DHT22;23050;51.776;22.638;2023-04-09T02:29:38;7.40;99.90
37158;DHT22;23050;51.776;22.638;2023-04-09T02:32:03;7.40;99.90
37158;DHT22;23050;51.776;22.638;2023-04-09T02:34:29;7.40;99.90
37158;DHT22;23050;51.776;22.638;2023-04-09T02:36:54;7.40;99.90
37158;DHT22;23050;51.776;22.638;2023-04-09T02:39:20;7.40;99.90
37158;DHT22;23050;51.776;22.638;2023-04-09T02:41:45;7.40;99.90
37158;DHT22;23050;51.776;22.638;2023-04-09T02:44:11;7.40;99.90
37158;DHT22;23050;51.776;22.638;2023-04-09T02:46:37;7.40;99.90
37158;DHT22;23050;51.776;22.638;2023-04-09T02:49:02;7.40;99.90
37158;DHT22;23050;51.776;22.638;2023-04-09T02:51:28;7.40;99.90
37158;DHT22;23050;51.776;22.638;2023-04-09T02:53:53;7.30;99.90
37158;DHT22;23050;51.776;22.638;2023-04-09T02:56:19;7.30;99.90
37158;DHT22;23050;51.776;22.638;2023-04-09T02:58:44;7.40;99.90
37158;DHT22;23050;51.776;22.638;2023-04-09T03:01:10;7.30;99.90
37158;DHT22;23050;51.776;22.638;2023-04-09T03:03:36;7.20;99.90
37158;DHT22;23050;51.776;22.638;2023-04-09T03:06:03;7.20;99.90
37158;DHT22;23050;51.776;22.638;2023-04-09T03:08:28;7.20;99.90
37158;DHT22;23050;51.776;22.638;2023-04-09T03:10:54;7.20;99.90
37158;DHT22;23050;51.776;22.638;2023-04-09T03:13:19;7.10;99.90
37158;DHT22;23050;51.776;22.638;2023-04-09T03:15:45;7.20;99.90
37158;DHT22;23050;51.776;22.638;2023-04-09T03:18:10;7.10;99.90
37158;DHT22;23050;51.776;22.638;2023-04-09T03:20:37;7.20;99.90
37158;DHT22;23050;51.776;22.638;2023-04-09T03:23:03;7.20;99.90
37158;DHT22;23050;51.776;22.638;2023-04-09T03:25:29;7.20;99.90
37158;DHT22;23050;51.776;22.638;2023-04-09T03:27:54;7.20;99.90
37158;DHT22;23050;51.776;22.638;2023-04-09T03:30:20;7.20;99.90
37158;DHT22;23050;51.776;22.638;2023-04-09T03:32:45;7.20;99.90
37158;DHT22;23050;51.776;22.638;2023-04-09T03:35:11;7.20;99.90
37158;DHT22;23050;51.776;22.638;2023-04-09T03:37:36;7.20;99.90
37158;DHT22;23050;51.776;22.638;2023-04-09T03:40:02;7.20;99.90
37158;DHT22;23050;51.776;22.638;2023-04-09T03:42:28;7.20;99.90
37158;DHT22;23050;51.776;22.638;2023-04-09T03:44:53;7.20;99.90
37158;DHT22;23050;51.776;22.638;2023-04-09T03:47:19;7.20;99.90
37158;DHT22;23050;51.776;22.638;2023-04-09T03:49:44;7.20;99.90
37158;DHT22;23050;51.776;22.638;2023-04-09T03:52:10;7.20;99.90
37158;DHT22;23050;51.776;22.638;2023-04-09T03:54:35;7.10;99.90
37158;DHT22;23050;51.776;22.638;2023-04-09T03:57:01;7.10;99.90
37158;DHT22;23050;51.776;22.638;2023-04-09T03:59:27;7.00;99.90
37158;DHT22;23050;51.776;22.638;2023-04-09T04:01:53;7.00;99.90
37158;DHT22;23050;51.776;22.638;2023-04-09T04:04:18;7.00;99.90
37158;DHT22;23050;51.776;22.638;2023-04-09T04:06:44;7.00;99.90
37158;DHT22;23050;51.776;22.638;2023-04-09T04:09:09;6.90;99.90
37158;DHT22;23050;51.776;22.638;2023-04-09T04:11:35;6.90;99.90
37158;DHT22;23050;51.776;22.638;2023-04-09T04:14:00;6.90;99.90
37158;DHT22;23050;51.776;22.638;2023-04-09T04:16:26;6.90;99.90
37158;DHT22;23050;51.776;22.638;2023-04-09T04:18:51;6.90;99.90
37158;DHT22;23050;51.776;22.638;2023-04-09T04:21:17;6.90;99.90
37158;DHT22;23050;51.776;22.638;2023-04-09T04:23:42;6.90;99.90
37158;DHT22;23050;51.776;22.638;2023-04-09T04:26:08;6.90;99.90
37158;DHT22;23050;51.776;22.638;2023-04-09T04:28:36;6.90;99.90
37158;DHT22;23050;51.776;22.638;2023-04-09T04:31:06;6.90;99.90
37158;DHT22;23050;51.776;22.638;2023-04-09T04:33:31;6.90;99.90
37158;DHT22;23050;51.776;22.638;2023-04-09T04:36:06;6.90;99.90
37158;DHT22;23050;51.776;22.638;2023-04-09T04:38:32;6.80;99.90
37158;DHT22;23050;51.776;22.638;2023-04-09T04:40:58;6.80;99.90
37158;DHT22;23050;51.776;22.638;2023-04-09T04:43:24;6.80;99.90
37158;DHT22;23050;51.776;22.638;2023-04-09T04:45:49;6.80;99.90
37158;DHT22;23050;51.776;22.638;2023-04-09T04:48:15;6.80;99.90
37158;DHT22;23050;51.776;22.638;2023-04-09T04:50:40;6.80;99.90
37158;DHT22;23050;51.776;22.638;2023-04-09T04:53:06;6.80;99.90
37158;DHT22;23050;51.776;22.638;2023-04-09T04:55:34;6.80;99.90
37158;DHT22;23050;51.776;22.638;2023-04-09T04:57:59;6.70;99.90
37158;DHT22;23050;51.776;22.638;2023-04-09T05:00:25;6.70;99.90
37158;DHT22;23050;51.776;22.638;2023-04-09T05:02:50;6.80;99.90
37158;DHT22;23050;51.776;22.638;2023-04-09T05:05:15;6.80;99.90
37158;DHT22;23050;51.776;22.638;2023-04-09T05:07:41;6.80;99.90
37158;DHT22;23050;51.776;22.638;2023-04-09T05:10:07;6.80;99.90
37158;DHT22;23050;51.776;22.638;2023-04-09T05:12:32;6.80;99.90
37158;DHT22;23050;51.776;22.638;2023-04-09T05:14:58;6.90;99.90
37158;DHT22;23050;51.776;22.638;2023-04-09T05:17:23;6.90;99.90
37158;DHT22;23050;51.776;22.638;2023-04-09T05:19:49;6.90;99.90
37158;DHT22;23050;51.776;22.638;2023-04-09T05:22:15;7.00;99.90
37158;DHT22;23050;51.776;22.638;2023-04-09T05:24:40;7.10;99.90
37158;DHT22;23050;51.776;22.638;2023-04-09T05:27:06;7.10;99.90
37158;DHT22;23050;51.776;22.638;2023-04-09T05:29:31;7.20;99.90
37158;DHT22;23050;51.776;22.638;2023-04-09T05:31:57;7.30;99.90
37158;DHT22;23050;51.776;22.638;2023-04-09T05:34:22;7.50;99.90
37158;DHT22;23050;51.776;22.638;2023-04-09T05:36:48;7.70;99.90
37158;DHT22;23050;51.776;22.638;2023-04-09T05:39:13;7.90;99.90
37158;DHT22;23050;51.776;22.638;2023-04-09T05:41:39;8.10;99.90
37158;DHT22;23050;51.776;22.638;2023-04-09T05:44:06;8.20;99.90
37158;DHT22;23050;51.776;22.638;2023-04-09T05:46:31;8.30;99.90
37158;DHT22;23050;51.776;22.638;2023-04-09T05:48:57;8.50;99.90
37158;DHT22;23050;51.776;22.638;2023-04-09T05:51:22;8.60;99.90
37158;DHT22;23050;51.776;22.638;2023-04-09T05:53:48;8.90;99.90
37158;DHT22;23050;51.776;22.638;2023-04-09T05:56:14;9.10;99.90
37158;DHT22;23050;51.776;22.638;2023-04-09T05:58:42;9.30;99.90
37158;DHT22;23050;51.776;22.638;2023-04-09T06:01:08;9.50;99.90
37158;DHT22;23050;51.776;22.638;2023-04-09T06:03:34;9.50;99.90
37158;DHT22;23050;51.776;22.638;2023-04-09T06:06:00;9.40;99.90
37158;DHT22;23050;51.776;22.638;2023-04-09T06:08:25;9.40;99.90
37158;DHT22;23050;51.776;22.638;2023-04-09T06:10:50;9.50;99.90
37158;DHT22;23050;51.776;22.638;2023-04-09T06:13:16;9.70;99.90
37158;DHT22;23050;51.776;22.638;2023-04-09T06:15:41;9.90;99.90
37158;DHT22;23050;51.776;22.638;2023-04-09T06:18:07;10.20;99.90
37158;DHT22;23050;51.776;22.638;2023-04-09T06:20:32;10.50;99.90
37158;DHT22;23050;51.776;22.638;2023-04-09T06:22:58;10.70;99.90
37158;DHT22;23050;51.776;22.638;2023-04-09T06:25:23;11.30;99.90
37158;DHT22;23050;51.776;22.638;2023-04-09T06:27:49;11.60;99.90
37158;DHT22;23050;51.776;22.638;2023-04-09T06:30:14;11.80;99.90
37158;DHT22;23050;51.776;22.638;2023-04-09T06:32:40;12.00;99.90
37158;DHT22;23050;51.776;22.638;2023-04-09T06:35:05;12.20;99.90
37158;DHT22;23050;51.776;22.638;2023-04-09T06:37:32;12.80;99.90
37158;DHT22;23050;51.776;22.638;2023-04-09T06:39:58;14.00;99.90
37158;DHT22;23050;51.776;22.638;2023-04-09T06:42:23;15.90;99.70
37158;DHT22;23050;51.776;22.638;2023-04-09T06:44:49;17.80;26.30
37158;DHT22;23050;51.776;22.638;2023-04-09T06:47:14;19.40;1.00
37158;DHT22;23050;51.776;22.638;2023-04-09T06:49:40;20.30;1.00
37158;DHT22;23050;51.776;22.638;2023-04-09T06:52:05;21.00;1.00
37158;DHT22;23050;51.776;22.638;2023-04-09T06:54:31;21.90;1.00
37158;DHT22;23050;51.776;22.638;2023-04-09T06:56:57;23.30;1.00
37158;DHT22;23050;51.776;22.638;2023-04-09T06:59:22;24.00;1.00
37158;DHT22;23050;51.776;22.638;2023-04-09T07:01:48;22.00;1.00
37158;DHT22;23050;51.776;22.638;2023-04-09T07:04:13;22.30;1.00
37158;DHT22;23050;51.776;22.638;2023-04-09T07:06:39;22.20;1.00
37158;DHT22;23050;51.776;22.638;2023-04-09T07:09:05;22.80;1.00
37158;DHT22;23050;51.776;22.638;2023-04-09T07:11:31;23.60;1.00
37158;DHT22;23050;51.776;22.638;2023-04-09T07:13:57;24.90;1.00
37158;DHT22;23050;51.776;22.638;2023-04-09T07:16:22;25.90;1.00
37158;DHT22;23050;51.776;22.638;2023-04-09T07:18:48;26.50;1.00
37158;DHT22;23050;51.776;22.638;2023-04-09T07:21:13;26.40;1.00
37158;DHT22;23050;51.776;22.638;2023-04-09T07:23:39;27.20;1.00
37158;DHT22;23050;51.776;22.638;2023-04-09T07:26:05;27.20;1.00
37158;DHT22;23050;51.776;22.638;2023-04-09T07:28:30;27.30;1.00
37158;DHT22;23050;51.776;22.638;2023-04-09T07:30:56;27.30;1.00
37158;DHT22;23050;51.776;22.638;2023-04-09T07:33:21;28.40;1.00
37158;DHT22;23050;51.776;22.638;2023-04-09T07:35:47;28.00;1.00
37158;DHT22;23050;51.776;22.638;2023-04-09T07:38:12;28.20;1.00
37158;DHT22;23050;51.776;22.638;2023-04-09T07:40:38;29.20;1.00
37158;DHT22;23050;51.776;22.638;2023-04-09T07:43:03;29.70;1.00
37158;DHT22;23050;51.776;22.638;2023-04-09T07:45:29;29.30;1.00
37158;DHT22;23050;51.776;22.638;2023-04-09T07:47:54;28.90;1.00
37158;DHT22;23050;51.776;22.638;2023-04-09T07:50:20;28.20;1.00
37158;DHT22;23050;51.776;22.638;2023-04-09T07:52:45;28.50;1.00
37158;DHT22;23050;51.776;22.638;2023-04-09T07:55:11;28.10;1.00
37158;DHT22;23050;51.776;22.638;2023-04-09T07:57:37;28.40;1.00
37158;DHT22;23050;51.776;22.638;2023-04-09T08:00:03;27.70;1.00
37158;DHT22;23050;51.776;22.638;2023-04-09T08:02:28;28.10;1.00
37158;DHT22;23050;51.776;22.638;2023-04-09T08:04:54;27.60;1.00
37158;DHT22;23050;51.776;22.638;2023-04-09T08:07:19;25.20;1.00
37158;DHT22;23050;51.776;22.638;2023-04-09T08:09:45;22.50;1.00
37158;DHT22;23050;51.776;22.638;2023-04-09T08:12:11;20.70;1.00
37158;DHT22;23050;51.776;22.638;2023-04-09T08:14:36;19.20;1.00
37158;DHT22;23050;51.776;22.638;2023-04-09T08:17:02;17.60;1.00
37158;DHT22;23050;51.776;22.638;2023-04-09T08:19:28;16.60;1.00
37158;DHT22;23050;51.776;22.638;2023-04-09T08:21:53;16.50;1.00
37158;DHT22;23050;51.776;22.638;2023-04-09T08:24:19;16.20;1.00
37158;DHT22;23050;51.776;22.638;2023-04-09T08:26:44;15.70;1.00
37158;DHT22;23050;51.776;22.638;2023-04-09T08:29:10;15.50;1.00
37158;DHT22;23050;51.776;22.638;2023-04-09T08:31:37;15.30;1.00
37158;DHT22;23050;51.776;22.638;2023-04-09T08:34:02;14.80;1.00
37158;DHT22;23050;51.776;22.638;2023-04-09T08:36:28;14.60;1.00
37158;DHT22;23050;51.776;22.638;2023-04-09T08:38:53;14.30;31.40
37158;DHT22;23050;51.776;22.638;2023-04-09T08:41:23;14.10;42.90
37158;DHT22;23050;51.776;22.638;2023-04-09T08:43:50;13.80;57.20
37158;DHT22;23050;51.776;22.638;2023-04-09T08:46:17;13.50;72.50
37158;DHT22;23050;51.776;22.638;2023-04-09T08:48:43;13.40;87.30
37158;DHT22;23050;51.776;22.638;2023-04-09T08:51:13;13.50;90.50
37158;DHT22;23050;51.776;22.638;2023-04-09T08:53:41;13.60;88.20
37158;DHT22;23050;51.776;22.638;2023-04-09T08:56:07;13.70;84.00
37158;DHT22;23050;51.776;22.638;2023-04-09T08:58:33;13.90;82.10
37158;DHT22;23050;51.776;22.638;2023-04-09T09:00:58;14.10;78.90
37158;DHT22;23050;51.776;22.638;2023-04-09T09:03:24;14.50;80.70
37158;DHT22;23050;51.776;22.638;2023-04-09T09:08:33;15.40;54.80
37158;DHT22;23050;51.776;22.638;2023-04-09T09:10:59;15.80;15.60
37158;DHT22;23050;51.776;22.638;2023-04-09T09:13:25;16.20;2.80
37158;DHT22;23050;51.776;22.638;2023-04-09T09:15:51;16.70;1.00
37158;DHT22;23050;51.776;22.638;2023-04-09T09:18:19;16.70;1.00
37158;DHT22;23050;51.776;22.638;2023-04-09T09:20:46;16.90;1.00
37158;DHT22;23050;51.776;22.638;2023-04-09T09:23:11;17.40;1.00
37158;DHT22;23050;51.776;22.638;2023-04-09T09:25:37;18.30;1.00
37158;DHT22;23050;51.776;22.638;2023-04-09T09:28:10;18.90;1.00
37158;DHT22;23050;51.776;22.638;2023-04-09T09:30:37;19.00;1.00
37158;DHT22;23050;51.776;22.638;2023-04-09T09:33:04;18.30;1.00
37158;DHT22;23050;51.776;22.638;2023-04-09T09:35:30;17.20;1.00
37158;DHT22;23050;51.776;22.638;2023-04-09T09:38:02;16.30;1.00
37158;DHT22;23050;51.776;22.638;2023-04-09T09:40:28;16.00;1.00
37158;DHT22;23050;51.776;22.638;2023-04-09T09:42:57;16.10;1.00
37158;DHT22;23050;51.776;22.638;2023-04-09T09:45:23;16.10;1.00
37158;DHT22;23050;51.776;22.638;2023-04-09T09:47:48;15.90;1.00
37158;DHT22;23050;51.776;22.638;2023-04-09T09:50:14;16.10;1.00
37158;DHT22;23050;51.776;22.638;2023-04-09T09:52:39;15.80;1.00
37158;DHT22;23050;51.776;22.638;2023-04-09T09:55:06;15.80;1.00
37158;DHT22;23050;51.776;22.638;2023-04-09T09:57:33;15.90;1.00
37158;DHT22;23050;51.776;22.638;2023-04-09T10:00:01;16.00;1.00
37158;DHT22;23050;51.776;22.638;2023-04-09T10:02:30;16.30;1.00
37158;DHT22;23050;51.776;22.638;2023-04-09T10:04:59;16.40;1.00
37158;DHT22;23050;51.776;22.638;2023-04-09T10:07:25;16.30;1.00
37158;DHT22;23050;51.776;22.638;2023-04-09T10:09:52;16.40;1.00
37158;DHT22;23050;51.776;22.638;2023-04-09T10:12:20;16.50;1.00
37158;DHT22;23050;51.776;22.638;2023-04-09T10:14:48;16.50;1.00
37158;DHT22;23050;51.776;22.638;2023-04-09T10:17:13;16.60;1.00
37158;DHT22;23050;51.776;22.638;2023-04-09T10:19:40;16.40;1.00
37158;DHT22;23050;51.776;22.638;2023-04-09T10:22:09;16.30;1.00
37158;DHT22;23050;51.776;22.638;2023-04-09T10:24:35;16.20;1.00
37158;DHT22;23050;51.776;22.638;2023-04-09T10:27:11;16.40;1.00
37158;DHT22;23050;51.776;22.638;2023-04-09T10:29:43;16.10;1.00
37158;DHT22;23050;51.776;22.638;2023-04-09T10:32:09;16.10;1.00
37158;DHT22;23050;51.776;22.638;2023-04-09T10:34:42;16.30;1.00
37158;DHT22;23050;51.776;22.638;2023-04-09T10:37:09;16.50;1.00
37158;DHT22;23050;51.776;22.638;2023-04-09T10:39:38;16.90;1.00
37158;DHT22;23050;51.776;22.638;2023-04-09T10:42:06;17.80;1.00
37158;DHT22;23050;51.776;22.638;2023-04-09T10:44:33;19.10;1.00
37158;DHT22;23050;51.776;22.638;2023-04-09T10:47:02;20.10;1.00
37158;DHT22;23050;51.776;22.638;2023-04-09T10:49:31;20.00;1.00
37158;DHT22;23050;51.776;22.638;2023-04-09T10:52:00;20.00;1.00
37158;DHT22;23050;51.776;22.638;2023-04-09T10:59:32;19.90;1.00
37158;DHT22;23050;51.776;22.638;2023-04-09T11:01:58;19.90;1.00
37158;DHT22;23050;51.776;22.638;2023-04-09T11:04:24;19.40;1.00
37158;DHT22;23050;51.776;22.638;2023-04-09T11:06:52;19.40;1.00
37158;DHT22;23050;51.776;22.638;2023-04-09T11:09:18;19.30;1.00
37158;DHT22;23050;51.776;22.638;2023-04-09T11:11:50;19.20;1.00
37158;DHT22;23050;51.776;22.638;2023-04-09T11:14:19;18.10;1.00
37158;DHT22;23050;51.776;22.638;2023-04-09T11:16:48;17.30;1.00
37158;DHT22;23050;51.776;22.638;2023-04-09T11:19:19;17.10;1.00
37158;DHT22;23050;51.776;22.638;2023-04-09T11:21:44;17.10;1.00
37158;DHT22;23050;51.776;22.638;2023-04-09T11:24:13;17.20;1.00
37158;DHT22;23050;51.776;22.638;2023-04-09T11:26:39;17.00;1.00
37158;DHT22;23050;51.776;22.638;2023-04-09T11:29:05;17.10;1.00
37158;DHT22;23050;51.776;22.638;2023-04-09T11:31:32;17.00;1.00
37158;DHT22;23050;51.776;22.638;2023-04-09T11:33:57;16.90;1.00
37158;DHT22;23050;51.776;22.638;2023-04-09T11:36:23;16.90;1.00
37158;DHT22;23050;51.776;22.638;2023-04-09T11:38:48;16.20;1.00
37158;DHT22;23050;51.776;22.638;2023-04-09T11:41:15;15.70;1.00
37158;DHT22;23050;51.776;22.638;2023-04-09T11:43:41;15.30;1.00
37158;DHT22;23050;51.776;22.638;2023-04-09T11:46:06;15.00;1.00
37158;DHT22;23050;51.776;22.638;2023-04-09T11:48:32;14.60;1.00
37158;DHT22;23050;51.776;22.638;2023-04-09T11:50:57;14.40;4.70
37158;DHT22;23050;51.776;22.638;2023-04-09T11:53:28;14.20;23.00
37158;DHT22;23050;51.776;22.638;2023-04-09T11:55:54;13.90;63.30
37158;DHT22;23050;51.776;22.638;2023-04-09T11:58:24;13.70;86.20
37158;DHT22;23050;51.776;22.638;2023-04-09T12:00:58;13.40;93.90
37158;DHT22;23050;51.776;22.638;2023-04-09T12:03:30;13.40;96.80
37158;DHT22;23050;51.776;22.638;2023-04-09T12:05:59;13.30;99.90
37158;DHT22;23050;51.776;22.638;2023-04-09T12:08:26;13.20;99.90
37158;DHT22;23050;51.776;22.638;2023-04-09T12:10:51;13.10;99.90
37158;DHT22;23050;51.776;22.638;2023-04-09T12:13:18;13.10;99.90
37158;DHT22;23050;51.776;22.638;2023-04-09T12:15:43;13.00;99.90
37158;DHT22;23050;51.776;22.638;2023-04-09T12:18:10;13.00;99.90
37158;DHT22;23050;51.776;22.638;2023-04-09T12:20:36;13.00;99.90
37158;DHT22;23050;51.776;22.638;2023-04-09T12:23:04;13.10;99.90
37158;DHT22;23050;51.776;22.638;2023-04-09T12:25:30;13.10;99.90
37158;DHT22;23050;51.776;22.638;2023-04-09T12:27:55;13.10;99.90
37158;DHT22;23050;51.776;22.638;2023-04-09T12:30:21;13.30;99.90
37158;DHT22;23050;51.776;22.638;2023-04-09T12:32:47;13.30;99.90
37158;DHT22;23050;51.776;22.638;2023-04-09T12:35:13;13.40;99.90
37158;DHT22;23050;51.776;22.638;2023-04-09T12:37:38;13.40;99.90
37158;DHT22;23050;51.776;22.638;2023-04-09T12:40:04;13.30;99.90
37158;DHT22;23050;51.776;22.638;2023-04-09T12:42:30;13.10;99.90
37158;DHT22;23050;51.776;22.638;2023-04-09T12:44:56;13.10;99.90
37158;DHT22;23050;51.776;22.638;2023-04-09T12:47:21;13.10;99.90
37158;DHT22;23050;51.776;22.638;2023-04-09T12:49:47;13.10;99.90
37158;DHT22;23050;51.776;22.638;2023-04-09T12:52:25;13.10;99.90
37158;DHT22;23050;51.776;22.638;2023-04-09T12:54:58;13.00;99.90
37158;DHT22;23050;51.776;22.638;2023-04-09T12:57:24;12.90;99.90
37158;DHT22;23050;51.776;22.638;2023-04-09T12:59:50;12.90;99.90
37158;DHT22;23050;51.776;22.638;2023-04-09T13:02:16;13.10;99.90
37158;DHT22;23050;51.776;22.638;2023-04-09T13:04:44;13.10;99.90
37158;DHT22;23050;51.776;22.638;2023-04-09T13:07:10;13.10;98.60
37158;DHT22;23050;51.776;22.638;2023-04-09T13:09:37;13.30;99.90
37158;DHT22;23050;51.776;22.638;2023-04-09T13:12:02;13.30;99.90
37158;DHT22;23050;51.776;22.638;2023-04-09T13:14:28;13.40;99.90
37158;DHT22;23050;51.776;22.638;2023-04-09T13:16:53;13.30;99.90
37158;DHT22;23050;51.776;22.638;2023-04-09T13:19:19;13.30;99.90
37158;DHT22;23050;51.776;22.638;2023-04-09T13:21:44;13.40;99.90
37158;DHT22;23050;51.776;22.638;2023-04-09T13:24:10;13.30;99.90
37158;DHT22;23050;51.776;22.638;2023-04-09T13:26:36;13.30;99.90
37158;DHT22;23050;51.776;22.638;2023-04-09T13:29:01;13.20;99.90
37158;DHT22;23050;51.776;22.638;2023-04-09T13:31:27;13.10;99.90
37158;DHT22;23050;51.776;22.638;2023-04-09T13:33:53;13.10;99.90
37158;DHT22;23050;51.776;22.638;2023-04-09T13:36:18;13.10;99.90
37158;DHT22;23050;51.776;22.638;2023-04-09T13:38:44;13.20;99.90
37158;DHT22;23050;51.776;22.638;2023-04-09T13:41:09;13.20;99.90
37158;DHT22;23050;51.776;22.638;2023-04-09T13:43:35;13.20;99.90
37158;DHT22;23050;51.776;22.638;2023-04-09T13:46:01;13.20;99.90
37158;DHT22;23050;51.776;22.638;2023-04-09T13:48:28;13.10;99.90
37158;DHT22;23050;51.776;22.638;2023-04-09T13:50:53;13.10;99.90
37158;DHT22;23050;51.776;22.638;2023-04-09T13:53:19;13.20;99.90
37158;DHT22;23050;51.776;22.638;2023-04-09T13:55:46;13.30;99.90
37158;DHT22;23050;51.776;22.638;2023-04-09T13:58:11;13.20;99.90
37158;DHT22;23050;51.776;22.638;2023-04-09T14:00:37;13.10;99.90
37158;DHT22;23050;51.776;22.638;2023-04-09T14:03:02;13.20;99.90
37158;DHT22;23050;51.776;22.638;2023-04-09T14:05:29;13.30;99.90
37158;DHT22;23050;51.776;22.638;2023-04-09T14:07:54;13.50;99.90
37158;DHT22;23050;51.776;22.638;2023-04-09T14:10:21;13.60;99.90
37158;DHT22;23050;51.776;22.638;2023-04-09T14:12:47;13.80;99.90
37158;DHT22;23050;51.776;22.638;2023-04-09T14:15:12;14.00;97.90
37158;DHT22;23050;51.776;22.638;2023-04-09T14:17:38;13.90;92.40
37158;DHT22;23050;51.776;22.638;2023-04-09T14:20:04;14.20;94.20
37158;DHT22;23050;51.776;22.638;2023-04-09T14:22:30;14.40;94.20
37158;DHT22;23050;51.776;22.638;2023-04-09T14:24:55;14.80;89.90
37158;DHT22;23050;51.776;22.638;2023-04-09T14:27:21;14.90;77.90
37158;DHT22;23050;51.776;22.638;2023-04-09T14:29:46;14.90;74.20
37158;DHT22;23050;51.776;22.638;2023-04-09T14:32:12;15.00;77.10
37158;DHT22;23050;51.776;22.638;2023-04-09T14:34:37;15.10;78.30
37158;DHT22;23050;51.776;22.638;2023-04-09T14:37:03;15.10;74.50
37158;DHT22;23050;51.776;22.638;2023-04-09T14:39:28;15.10;66.90
37158;DHT22;23050;51.776;22.638;2023-04-09T14:41:54;15.10;74.60
37158;DHT22;23050;51.776;22.638;2023-04-09T14:44:21;15.10;76.00
37158;DHT22;23050;51.776;22.638;2023-04-09T14:46:49;15.10;76.60
37158;DHT22;23050;51.776;22.638;2023-04-09T14:49:16;15.10;76.10
37158;DHT22;23050;51.776;22.638;2023-04-09T14:51:41;15.40;78.40
37158;DHT22;23050;51.776;22.638;2023-04-09T14:54:07;16.20;62.60
37158;DHT22;23050;51.776;22.638;2023-04-09T14:56:32;17.00;4.20
37158;DHT22;23050;51.776;22.638;2023-04-09T14:58:58;18.00;1.00
37158;DHT22;23050;51.776;22.638;2023-04-09T15:01:24;18.90;1.00
37158;DHT22;23050;51.776;22.638;2023-04-09T15:03:50;19.80;1.00
37158;DHT22;23050;51.776;22.638;2023-04-09T15:06:18;20.20;1.00
37158;DHT22;23050;51.776;22.638;2023-04-09T15:08:44;20.40;1.00
37158;DHT22;23050;51.776;22.638;2023-04-09T15:11:16;20.40;1.00
37158;DHT22;23050;51.776;22.638;2023-04-09T15:13:41;20.60;1.00
37158;DHT22;23050;51.776;22.638;2023-04-09T15:16:07;20.90;1.00
37158;DHT22;23050;51.776;22.638;2023-04-09T15:18:33;20.90;1.00
37158;DHT22;23050;51.776;22.638;2023-04-09T15:20:58;20.90;1.00
37158;DHT22;23050;51.776;22.638;2023-04-09T15:23:24;20.90;1.00
37158;DHT22;23050;51.776;22.638;2023-04-09T15:25:49;21.00;1.00
37158;DHT22;23050;51.776;22.638;2023-04-09T15:28:15;21.30;1.00
37158;DHT22;23050;51.776;22.638;2023-04-09T15:30:40;21.50;1.00
37158;DHT22;23050;51.776;22.638;2023-04-09T15:33:06;21.60;1.00
37158;DHT22;23050;51.776;22.638;2023-04-09T15:35:32;21.50;1.00
37158;DHT22;23050;51.776;22.638;2023-04-09T15:37:58;21.00;1.00